Time;durP1;ratioP1;P1;durP2;ratioP2;P2;SDS_P1;SDS_P2;PMS_P1;PMS_P2;Temp;Humidity;BMP_temperature;BMP_pressure;BME280_temperature;BME280_humidity;BME280_pressure;Samples;Min_cycle;Max_cycle;Signal;HPM_P1;HPM_P2
2022/06/20 00:02:19;;;;;;;5.30;2.87;;;21.60;1.00;;;;;;5071555;28;20813;-81
2022/06/20 00:04:45;;;;;;;8.40;2.83;;;21.60;1.00;;;;;;5072590;28;20959;-81
2022/06/20 00:07:12;;;;;;;6.43;2.93;;;21.60;1.00;;;;;;5071986;28;20431;-81
2022/06/20 00:09:38;;;;;;;5.60;3.20;;;21.60;1.00;;;;;;5072764;28;20891;-81
2022/06/20 00:12:04;;;;;;;12.07;2.93;;;21.50;1.00;;;;;;5072165;28;20426;-81
2022/06/20 00:14:32;;;;;;;8.27;2.93;;;21.50;1.00;;;;;;5071363;28;20200;-81
2022/06/20 00:16:58;;;;;;;4.77;2.50;;;21.50;1.00;;;;;;5071503;28;20440;-81
2022/06/20 00:19:23;;;;;;;7.70;3.20;;;21.50;1.00;;;;;;5071316;28;20530;-81
2022/06/20 00:21:49;;;;;;;7.33;2.80;;;21.40;1.00;;;;;;5072488;28;20647;-81
2022/06/20 00:24:15;;;;;;;6.87;2.83;;;21.40;1.00;;;;;;5072679;28;20191;-81
2022/06/20 00:26:40;;;;;;;11.73;3.30;;;21.30;1.00;;;;;;5072047;28;20192;-81
2022/06/20 00:29:08;;;;;;;8.00;2.53;;;21.40;1.00;;;;;;5072562;28;20190;-81
2022/06/20 00:31:35;;;;;;;6.63;2.73;;;21.30;1.00;;;;;;5072130;28;20184;-81
2022/06/20 00:34:00;;;;;;;6.10;2.47;;;21.20;1.00;;;;;;5065766;28;20436;-81
2022/06/20 00:36:26;;;;;;;6.77;2.80;;;21.20;1.00;;;;;;5073035;28;20521;-81
2022/06/20 00:38:54;;;;;;;15.20;2.40;;;21.10;1.00;;;;;;5072930;28;20211;-81
2022/06/20 00:41:24;;;;;;;7.77;3.30;;;21.10;1.00;;;;;;5072060;28;20425;-81
2022/06/20 00:43:52;;;;;;;8.40;3.00;;;21.00;1.00;;;;;;5072633;28;20416;-82
2022/06/20 00:46:41;;;;;;;8.10;3.03;;;21.00;1.00;;;;;;5072397;28;20430;-82
2022/06/20 00:49:36;;;;;;;9.90;3.00;;;21.00;1.00;;;;;;5072608;28;20916;-82
2022/06/20 00:52:21;;;;;;;6.67;3.10;;;20.90;1.00;;;;;;5088058;28;20417;-82
2022/06/20 00:54:51;;;;;;;5.87;2.57;;;20.90;1.00;;;;;;5065097;28;20482;-81
2022/06/20 00:57:22;;;;;;;5.07;2.60;;;20.80;1.00;;;;;;5084510;28;20458;-81
2022/06/20 00:59:52;;;;;;;12.73;2.97;;;20.80;1.00;;;;;;5072284;28;20461;-81
2022/06/20 01:02:27;;;;;;;7.33;2.60;;;20.80;1.00;;;;;;5070784;28;20874;-81
2022/06/20 01:05:00;;;;;;;8.87;2.60;;;20.80;1.00;;;;;;5075034;28;20421;-81
2022/06/20 01:07:59;;;;;;;6.07;2.10;;;20.70;1.00;;;;;;5072290;28;20835;-81
2022/06/20 01:10:27;;;;;;;4.87;2.60;;;20.70;1.00;;;;;;5065083;28;20433;-81
2022/06/20 01:13:02;;;;;;;7.73;2.50;;;20.60;1.00;;;;;;5072287;28;20433;-81
2022/06/20 01:15:35;;;;;;;5.63;2.50;;;20.60;1.00;;;;;;5072140;28;20578;-81
2022/06/20 01:18:04;;;;;;;6.70;2.77;;;20.60;1.00;;;;;;5070664;28;20429;-81
2022/06/20 01:20:36;;;;;;;10.67;2.63;;;20.50;1.00;;;;;;5070673;28;20468;-81
2022/06/20 01:23:37;;;;;;;10.37;2.97;;;20.50;1.00;;;;;;5072076;28;20982;-81
2022/06/20 01:26:19;;;;;;;12.30;2.87;;;20.50;1.00;;;;;;5033357;28;20434;-81
2022/06/20 01:28:49;;;;;;;7.73;2.63;;;20.50;1.00;;;;;;5034696;28;20432;-81
2022/06/20 01:31:17;;;;;;;6.50;2.83;;;20.40;1.00;;;;;;5025260;28;20439;-81
2022/06/20 01:33:44;;;;;;;8.27;3.03;;;20.50;1.00;;;;;;5033331;28;20790;-81
2022/06/20 01:38:59;;;;;;;6.03;2.40;;;20.50;1.00;;;;;;5033731;28;20470;-81
2022/06/20 01:44:11;;;;;;;6.60;2.23;;;20.50;1.00;;;;;;5033635;28;20949;-81
2022/06/20 01:46:37;;;;;;;7.00;2.60;;;20.50;1.00;;;;;;5038417;28;20957;-81
2022/06/20 01:49:12;;;;;;;9.33;2.67;;;20.40;1.00;;;;;;5033170;28;20431;-81
2022/06/20 01:51:56;;;;;;;7.27;2.33;;;20.40;1.00;;;;;;5033407;28;20746;-82
2022/06/20 01:54:25;;;;;;;4.90;2.73;;;20.40;1.00;;;;;;5045615;28;20431;-81
2022/06/20 01:56:52;;;;;;;4.37;2.43;;;20.30;1.00;;;;;;5033141;28;20427;-81
2022/06/20 01:59:25;;;;;;;6.03;2.57;;;20.20;1.00;;;;;;5043933;28;20705;-81
2022/06/20 02:01:52;;;;;;;4.50;1.90;;;20.20;1.00;;;;;;5041236;28;20445;-81
2022/06/20 02:04:23;;;;;;;6.87;2.50;;;20.20;1.00;;;;;;5073718;28;20794;-81
2022/06/20 02:06:50;;;;;;;6.80;2.60;;;20.20;1.00;;;;;;5074750;28;20476;-81
2022/06/20 02:09:16;;;;;;;7.80;2.20;;;20.20;1.00;;;;;;5075202;28;20433;-81
2022/06/20 02:11:45;;;;;;;9.63;3.20;;;20.30;1.00;;;;;;5073580;28;20500;-81
2022/06/20 02:14:35;;;;;;;7.17;2.80;;;20.30;1.00;;;;;;5074855;28;20461;-81
2022/06/20 02:17:06;;;;;;;12.67;2.77;;;20.30;1.00;;;;;;5074659;28;20538;-81
2022/06/20 02:19:37;;;;;;;6.23;2.47;;;20.40;1.00;;;;;;5074881;28;20456;-81
2022/06/20 02:22:07;;;;;;;7.50;2.30;;;20.40;1.00;;;;;;5073119;28;20521;-82
2022/06/20 02:24:38;;;;;;;6.23;2.50;;;20.30;1.00;;;;;;5075069;28;20429;-81
2022/06/20 02:27:08;;;;;;;8.63;2.80;;;20.30;1.00;;;;;;5065648;28;20474;-80
2022/06/20 02:29:34;;;;;;;9.20;3.10;;;20.30;1.00;;;;;;5068010;28;20623;-81
2022/06/20 02:32:04;;;;;;;12.20;2.93;;;20.30;1.00;;;;;;5065708;28;20901;-81
2022/06/20 02:34:30;;;;;;;8.83;3.43;;;20.30;1.00;;;;;;5066875;28;20640;-81
2022/06/20 02:37:01;;;;;;;6.83;2.73;;;20.30;1.00;;;;;;5074289;28;20892;-81
2022/06/20 02:39:28;;;;;;;4.67;2.70;;;20.40;1.00;;;;;;5073321;28;20466;-81
2022/06/20 02:41:58;;;;;;;17.40;3.00;;;20.30;1.00;;;;;;5066619;28;20433;-82
2022/06/20 02:44:26;;;;;;;7.63;3.30;;;20.40;1.00;;;;;;5069143;28;20454;-81
2022/06/20 02:46:53;;;;;;;5.30;2.77;;;20.40;1.00;;;;;;5074369;28;20416;-81
2022/06/20 02:49:24;;;;;;;8.00;2.80;;;20.50;1.00;;;;;;5072893;28;20812;-81
2022/06/20 02:51:53;;;;;;;6.30;2.80;;;20.50;1.00;;;;;;5073829;28;20924;-82
2022/06/20 02:54:22;;;;;;;7.90;2.90;;;20.50;1.00;;;;;;5074347;28;20429;-81
2022/06/20 02:56:52;;;;;;;10.87;3.00;;;20.60;1.00;;;;;;5074045;28;20433;-82
2022/06/20 02:59:22;;;;;;;9.30;2.90;;;20.60;1.00;;;;;;5073997;28;20472;-82
2022/06/20 03:02:02;;;;;;;6.57;2.87;;;20.60;1.00;;;;;;5072737;28;20452;-82
2022/06/20 03:04:35;;;;;;;10.83;2.93;;;20.60;1.00;;;;;;5060972;28;20409;-81
2022/06/20 03:07:06;;;;;;;17.10;3.27;;;20.60;1.00;;;;;;5087267;28;20414;-82
2022/06/20 03:09:35;;;;;;;8.87;3.00;;;20.60;1.00;;;;;;5073898;28;20807;-81
2022/06/20 03:12:05;;;;;;;5.17;2.67;;;20.60;1.00;;;;;;5074263;28;20791;-81
2022/06/20 03:14:42;;;;;;;9.00;3.13;;;20.60;1.00;;;;;;5084760;28;20914;-82
2022/06/20 03:17:08;;;;;;;4.43;2.37;;;20.50;1.00;;;;;;5073491;28;20760;-82
2022/06/20 03:19:37;;;;;;;6.37;2.70;;;20.50;1.00;;;;;;5063098;28;20554;-82
2022/06/20 03:22:06;;;;;;;3.70;2.30;;;20.40;1.00;;;;;;5070928;28;20439;-82
2022/06/20 03:24:32;;;;;;;7.17;2.97;;;20.30;1.00;;;;;;5072364;28;20425;-81
2022/06/20 03:27:06;;;;;;;6.03;2.83;;;20.30;1.00;;;;;;5072962;28;20417;-82
2022/06/20 03:29:34;;;;;;;6.63;2.53;;;20.20;1.00;;;;;;5073247;28;20441;-82
2022/06/20 03:31:59;;;;;;;9.83;2.40;;;20.20;1.00;;;;;;5067168;28;20444;-82
2022/06/20 03:34:25;;;;;;;5.57;2.70;;;20.10;1.00;;;;;;5066280;28;20434;-82
2022/06/20 03:36:51;;;;;;;7.20;3.00;;;20.10;1.00;;;;;;5086940;28;20171;-82
2022/06/20 03:39:21;;;;;;;11.70;3.10;;;20.10;1.00;;;;;;5086426;28;20628;-82
2022/06/20 03:41:48;;;;;;;4.70;2.40;;;20.10;1.00;;;;;;5080209;28;20417;-82
2022/06/20 03:44:29;;;;;;;7.17;2.57;;;20.10;1.00;;;;;;5091311;28;20507;-82
2022/06/20 03:47:30;;;;;;;3.27;2.40;;;20.10;1.00;;;;;;5081782;28;20427;-82
2022/06/20 03:50:06;;;;;;;7.50;2.50;;;20.00;1.00;;;;;;5011001;28;20427;-81
2022/06/20 03:52:38;;;;;;;5.77;2.20;;;20.00;1.00;;;;;;5010422;28;20904;-82
2022/06/20 03:55:13;;;;;;;3.20;2.40;;;19.90;1.00;;;;;;5000672;28;20485;-82
2022/06/20 03:57:44;;;;;;;4.23;2.17;;;19.80;1.00;;;;;;5006982;28;20537;-81
2022/06/20 04:00:14;;;;;;;9.83;2.50;;;19.90;1.00;;;;;;5002761;28;20481;-81
2022/06/20 04:02:53;;;;;;;8.70;2.20;;;19.90;1.00;;;;;;5009603;28;20424;-81
2022/06/20 04:05:29;;;;;;;4.07;2.33;;;19.90;1.00;;;;;;5009545;28;20437;-81
2022/06/20 04:08:02;;;;;;;5.80;2.60;;;19.90;1.00;;;;;;5007234;28;20800;-81
2022/06/20 04:11:03;;;;;;;4.83;2.50;;;19.90;1.00;;;;;;5007539;28;20436;-81
2022/06/20 04:13:50;;;;;;;6.60;2.10;;;19.90;1.00;;;;;;5006487;28;20453;-81
2022/06/20 04:16:27;;;;;;;5.37;1.90;;;19.90;1.00;;;;;;5010767;28;20958;-81
2022/06/20 04:19:07;;;;;;;4.93;2.50;;;19.90;1.00;;;;;;4999826;28;20842;-82
2022/06/20 04:21:36;;;;;;;6.27;2.40;;;19.90;1.00;;;;;;4994491;28;20439;-81
2022/06/20 04:24:04;;;;;;;3.47;2.60;;;19.90;1.00;;;;;;5003560;28;20910;-81
2022/06/20 04:26:35;;;;;;;9.30;2.63;;;20.00;1.00;;;;;;5021614;28;20441;-78
2022/06/20 04:29:09;;;;;;;11.00;3.17;;;20.10;1.00;;;;;;5075496;28;20425;-77
2022/06/20 04:31:50;;;;;;;4.87;2.27;;;20.20;1.00;;;;;;5064589;28;20519;-78
2022/06/20 04:34:24;;;;;;;4.90;2.50;;;20.30;1.00;;;;;;5070886;28;20516;-84
2022/06/20 04:37:03;;;;;;;4.40;2.43;;;20.40;1.00;;;;;;5072497;28;20540;-85
2022/06/20 04:39:59;;;;;;;6.60;2.50;;;20.50;1.00;;;;;;5072768;28;20458;-85
2022/06/20 04:42:49;;;;;;;4.23;2.23;;;20.60;1.00;;;;;;5064903;28;20442;-84
2022/06/20 04:45:27;;;;;;;3.47;2.60;;;20.60;1.00;;;;;;5064912;28;20479;-84
2022/06/20 04:48:13;;;;;;;4.30;2.17;;;20.70;1.00;;;;;;5072617;28;20453;-84
2022/06/20 04:50:52;;;;;;;4.73;2.60;;;20.60;1.00;;;;;;5063015;28;20427;-84
2022/06/20 04:53:25;;;;;;;6.60;2.33;;;20.60;1.00;;;;;;5069896;28;20501;-84
2022/06/20 04:55:54;;;;;;;10.63;2.67;;;20.40;1.00;;;;;;5071718;28;20495;-84
2022/06/20 04:58:34;;;;;;;6.03;2.63;;;20.30;1.00;;;;;;5073472;28;20434;-84
2022/06/20 05:01:00;;;;;;;8.87;2.67;;;20.30;1.00;;;;;;5088962;28;20437;-87
2022/06/20 05:03:48;;;;;;;2.53;2.10;;;20.30;1.00;;;;;;5075906;28;20424;-86
2022/06/20 05:06:19;;;;;;;8.50;2.60;;;20.30;1.00;;;;;;5076978;28;20422;-87
2022/06/20 05:08:54;;;;;;;9.13;2.53;;;20.30;1.00;;;;;;5075196;28;20426;-87
2022/06/20 05:11:31;;;;;;;7.63;2.70;;;20.30;1.00;;;;;;5075697;28;20791;-88
2022/06/20 05:14:30;;;;;;;2.47;2.17;;;20.40;1.00;;;;;;5075251;28;20430;-87
2022/06/20 05:16:56;;;;;;;4.07;2.43;;;20.40;1.00;;;;;;5016624;28;20438;-86
2022/06/20 05:19:30;;;;;;;7.77;2.63;;;20.40;1.00;;;;;;5030313;28;20466;-87
2022/06/20 05:21:59;;;;;;;8.33;2.40;;;20.40;1.00;;;;;;5034465;28;20439;-86
2022/06/20 05:24:31;;;;;;;9.97;2.20;;;20.40;1.00;;;;;;5024939;28;20428;-86
2022/06/20 05:26:59;;;;;;;5.60;2.40;;;20.50;1.00;;;;;;5022953;28;20412;-86
2022/06/20 05:29:29;;;;;;;4.63;2.10;;;20.50;1.00;;;;;;5034368;28;20417;-86
2022/06/20 05:31:59;;;;;;;8.07;2.40;;;20.60;1.00;;;;;;5030827;28;20580;-86
2022/06/20 05:34:31;;;;;;;5.87;2.00;;;20.60;1.00;;;;;;5007995;28;20800;-86
2022/06/20 05:37:48;;;;;;;8.13;2.40;;;20.50;1.00;;;;;;4993529;28;20525;-85
2022/06/20 05:40:32;;;;;;;5.27;2.20;;;20.50;1.00;;;;;;4958972;28;21022;-86
2022/06/20 05:42:58;;;;;;;3.93;2.27;;;20.50;1.00;;;;;;4955851;28;20488;-86
2022/06/20 05:45:26;;;;;;;3.60;2.50;;;20.50;1.00;;;;;;4952941;29;20412;-86
2022/06/20 05:47:56;;;;;;;5.07;2.57;;;20.40;1.00;;;;;;4972452;28;20472;-86
2022/06/20 05:50:29;;;;;;;7.03;2.30;;;20.50;1.00;;;;;;4974742;28;20429;-86
2022/06/20 05:52:56;;;;;;;9.03;2.70;;;20.50;1.00;;;;;;4977871;28;20536;-86
2022/06/20 05:55:32;;;;;;;10.63;2.50;;;20.50;1.00;;;;;;4978537;28;20465;-75
2022/06/20 05:58:00;;;;;;;6.83;2.53;;;20.60;1.00;;;;;;4999687;28;20470;-76
2022/06/20 06:00:30;;;;;;;5.10;2.50;;;20.80;1.00;;;;;;5003335;28;20480;-77
2022/06/20 06:02:59;;;;;;;6.27;2.33;;;20.90;1.00;;;;;;5005213;28;20438;-77
2022/06/20 06:05:35;;;;;;;9.03;2.80;;;20.90;1.00;;;;;;4997284;28;20433;-76
2022/06/20 06:08:20;;;;;;;5.23;2.40;;;21.10;1.00;;;;;;5003754;28;20408;-76
2022/06/20 06:11:02;;;;;;;5.63;2.53;;;21.20;1.00;;;;;;5008958;28;20413;-76
2022/06/20 06:14:03;;;;;;;7.00;2.53;;;21.10;1.00;;;;;;5004034;28;20441;-77
2022/06/20 06:16:59;;;;;;;4.67;2.63;;;21.10;1.00;;;;;;5019714;28;20668;-76
2022/06/20 06:22:56;;;;;;;6.43;2.80;;;21.00;1.00;;;;;;5064038;28;20975;-81
2022/06/20 06:25:56;;;;;;;4.80;2.80;;;20.90;1.00;;;;;;5068023;28;20459;-81
2022/06/20 06:28:25;;;;;;;46.20;4.33;;;20.90;1.00;;;;;;5075200;28;20421;-75
2022/06/20 06:30:53;;;;;;;89.93;7.17;;;20.90;1.00;;;;;;5072905;28;20779;-74
2022/06/20 06:33:32;;;;;;;88.67;6.97;;;20.80;1.00;;;;;;5063293;28;20534;-74
2022/06/20 06:36:30;;;;;;;37.50;4.70;;;20.70;1.00;;;;;;5075559;28;20512;-74
2022/06/20 06:39:03;;;;;;;22.90;3.27;;;20.70;1.00;;;;;;5042624;28;20465;-74
2022/06/20 06:41:48;;;;;;;9.60;3.10;;;20.70;1.00;;;;;;5036812;28;20434;-75
2022/06/20 06:44:29;;;;;;;9.60;3.10;;;20.70;1.00;;;;;;5053169;28;20894;-75
2022/06/20 06:46:56;;;;;;;17.37;3.27;;;20.70;1.00;;;;;;5048242;28;20398;-75
2022/06/20 06:49:46;;;;;;;10.13;3.57;;;20.70;1.00;;;;;;5046893;28;20424;-75
2022/06/20 06:52:25;;;;;;;16.23;3.07;;;20.80;1.00;;;;;;5041457;28;20423;-75
2022/06/20 06:55:36;;;;;;;14.17;3.30;;;20.90;1.00;;;;;;5025503;28;20432;-75
2022/06/20 06:58:09;;;;;;;5.07;2.93;;;21.00;1.00;;;;;;5001094;28;20915;-75
2022/06/20 07:00:44;;;;;;;8.47;3.37;;;21.10;1.00;;;;;;4994766;28;20524;-74
2022/06/20 07:03:37;;;;;;;7.57;3.40;;;21.00;1.00;;;;;;4974110;28;20422;-75
2022/06/20 07:06:11;;;;;;;9.23;4.07;;;21.00;1.00;;;;;;4992160;28;20443;-75
2022/06/20 07:08:43;;;;;;;11.83;3.93;;;21.00;1.00;;;;;;4992389;28;20437;-75
2022/06/20 07:11:22;;;;;;;8.63;3.97;;;20.90;1.00;;;;;;4993055;28;20430;-80
2022/06/20 07:14:00;;;;;;;9.53;3.63;;;20.90;1.00;;;;;;4992689;28;20921;-80
2022/06/20 07:16:43;;;;;;;9.83;3.80;;;21.00;1.00;;;;;;5001690;28;20441;-81
2022/06/20 07:19:12;;;;;;;8.13;3.97;;;21.10;1.00;;;;;;5011170;28;20575;-80
2022/06/20 07:21:39;;;;;;;5.57;3.53;;;21.00;1.00;;;;;;5009865;28;20433;-81
2022/06/20 07:24:08;;;;;;;9.33;3.67;;;21.00;1.00;;;;;;5011141;28;20544;-80
2022/06/20 07:26:48;;;;;;;7.07;3.80;;;21.00;1.00;;;;;;5011174;28;20434;-75
2022/06/20 07:29:25;;;;;;;6.77;4.13;;;21.00;1.00;;;;;;5010915;28;20494;-75
2022/06/20 07:32:30;;;;;;;7.10;3.90;;;21.00;1.00;;;;;;5035706;28;20538;-75
2022/06/20 07:34:59;;;;;;;6.27;3.50;;;21.00;1.00;;;;;;5010284;28;20445;-74
2022/06/20 07:37:54;;;;;;;8.97;4.50;;;21.00;1.00;;;;;;5022520;28;20428;-74
2022/06/20 07:40:41;;;;;;;11.63;4.20;;;21.00;1.00;;;;;;4960582;28;20486;-74
2022/06/20 07:43:25;;;;;;;11.17;3.93;;;21.10;1.00;;;;;;4935191;29;20538;-74
2022/06/20 07:45:53;;;;;;;10.80;4.03;;;21.20;1.00;;;;;;4955088;28;20447;-73
2022/06/20 07:48:33;;;;;;;10.23;4.50;;;21.40;1.00;;;;;;4962888;28;20432;-73
2022/06/20 07:51:15;;;;;;;11.07;4.87;;;21.60;1.00;;;;;;4957517;28;20421;-89
2022/06/20 07:57:26;;;;;;;18.57;5.07;;;21.70;1.00;;;;;;4969697;28;20504;-87
2022/06/20 08:00:38;;;;;;;11.37;4.10;;;21.80;1.00;;;;;;4973818;28;20835;-87
2022/06/20 08:06:44;;;;;;;10.60;4.20;;;21.80;1.00;;;;;;4964517;28;20587;-87
2022/06/20 08:09:48;;;;;;;7.07;4.40;;;21.80;1.00;;;;;;4948083;29;21727;-88
2022/06/20 08:12:56;;;;;;;9.53;4.10;;;21.80;1.00;;;;;;4999717;28;20881;-95
2022/06/20 08:18:43;;;;;;;6.70;4.67;;;21.90;1.00;;;;;;5054331;28;20402;-84
2022/06/20 08:25:10;;;;;;;12.47;4.63;;;21.80;1.00;;;;;;5054946;28;20397;-81
2022/06/20 08:27:47;;;;;;;13.10;4.47;;;21.90;1.00;;;;;;5054256;28;20463;-87
2022/06/20 08:37:15;;;;;;;9.80;3.60;;;22.10;1.00;;;;;;5068516;28;20399;-87
2022/06/20 08:40:14;;;;;;;3.80;2.40;;;22.10;1.00;;;;;;5074218;28;20471;-87
2022/06/20 08:43:00;;;;;;;3.80;2.60;;;21.90;1.00;;;;;;5073213;28;20503;-85
2022/06/20 08:45:38;;;;;;;3.93;2.23;;;21.90;1.00;;;;;;5061633;28;20442;-87
2022/06/20 08:52:07;;;;;;;4.20;2.40;;;21.80;1.00;;;;;;5061977;28;20431;-87
2022/06/20 08:54:42;;;;;;;2.50;2.00;;;21.90;1.00;;;;;;5051995;28;20968;-87
2022/06/20 08:57:48;;;;;;;2.63;2.20;;;21.90;1.00;;;;;;5039791;28;20433;-82
2022/06/20 09:00:37;;;;;;;3.00;2.50;;;21.80;1.00;;;;;;4980392;28;20561;-81
2022/06/20 09:03:44;;;;;;;4.23;2.90;;;21.80;1.00;;;;;;4971379;28;20470;-81
2022/06/20 09:09:53;;;;;;;3.57;2.40;;;21.40;1.00;;;;;;4962745;28;20429;-80
2022/06/20 09:13:14;;;;;;;2.10;1.77;;;21.10;1.00;;;;;;4973503;28;20456;-87
2022/06/20 09:16:10;;;;;;;2.60;1.73;;;21.10;1.00;;;;;;4973104;28;20450;-86
2022/06/20 09:22:47;;;;;;;1.20;1.10;;;20.70;1.00;;;;;;4973049;28;20929;-86
2022/06/20 09:25:46;;;;;;;1.10;1.00;;;20.50;1.00;;;;;;4972510;28;20533;-81
2022/06/20 09:28:38;;;;;;;1.50;1.20;;;20.30;1.00;;;;;;4958491;28;20441;-82
2022/06/20 09:31:44;;;;;;;2.37;1.00;;;20.30;1.00;;;;;;4969998;28;20943;-83
2022/06/20 09:34:46;;;;;;;6.10;1.00;;;20.10;1.00;;;;;;4974949;28;20454;-84
2022/06/20 09:41:14;;;;;;;0.90;0.90;;;20.00;1.00;;;;;;5059784;28;20586;-89
2022/06/20 09:44:09;;;;;;;1.13;1.00;;;19.90;1.00;;;;;;5068142;28;20424;-74
2022/06/20 09:46:49;;;;;;;0.90;0.90;;;19.80;1.00;;;;;;5076189;28;20405;-75
2022/06/20 09:49:33;;;;;;;6.20;1.10;;;19.80;1.00;;;;;;5072725;28;20424;-75
2022/06/20 09:52:13;;;;;;;1.10;1.10;;;19.70;1.00;;;;;;5084457;28;20459;-74
2022/06/20 09:55:16;;;;;;;1.07;0.97;;;19.60;1.00;;;;;;5081332;28;20457;-75
2022/06/20 09:58:19;;;;;;;1.30;1.20;;;19.40;1.00;;;;;;5076227;28;20502;-75
2022/06/20 10:00:57;;;;;;;3.17;1.10;;;19.30;1.00;;;;;;5075809;28;20467;-75
2022/06/20 10:03:47;;;;;;;1.60;1.50;;;19.40;1.00;;;;;;5074385;28;20435;-74
2022/06/20 10:06:32;;;;;;;2.30;1.30;;;19.30;1.00;;;;;;5088620;28;20436;-74
2022/06/20 10:09:20;;;;;;;1.20;1.20;;;19.20;1.00;;;;;;5055997;28;20401;-76
2022/06/20 10:12:26;;;;;;;3.57;1.60;;;19.30;1.00;;;;;;5068974;28;20744;-80
2022/06/20 10:15:09;;;;;;;1.60;1.50;;;19.20;1.00;;;;;;5025693;28;20441;-75
2022/06/20 10:18:02;;;;;;;3.23;1.97;;;19.20;1.00;;;;;;5019501;28;20430;-74
2022/06/20 10:20:40;;;;;;;2.80;1.90;;;19.20;1.00;;;;;;5037528;28;20423;-72
2022/06/20 10:23:27;;;;;;;2.03;1.90;;;19.10;1.00;;;;;;5024849;28;20452;-73
2022/06/20 10:26:14;;;;;;;2.07;1.97;;;19.10;1.00;;;;;;5041910;28;20455;-74
2022/06/20 10:29:20;;;;;;;1.80;1.70;;;19.10;1.00;;;;;;5025223;28;20869;-74
2022/06/20 10:31:57;;;;;;;1.70;1.60;;;19.10;1.00;;;;;;5033342;28;20445;-74
2022/06/20 10:34:42;;;;;;;1.93;1.80;;;19.10;1.00;;;;;;5033585;28;20453;-76
2022/06/20 10:37:30;;;;;;;2.23;2.13;;;19.00;1.00;;;;;;5033388;28;20432;-75
2022/06/20 10:40:00;;;;;;;1.83;1.73;;;19.00;1.00;;;;;;5022111;28;20465;-74
2022/06/20 10:42:55;;;;;;;1.87;1.77;;;19.10;1.00;;;;;;5033119;28;20981;-74
2022/06/20 10:45:45;;;;;;;1.97;1.83;;;19.20;1.00;;;;;;5042232;28;20409;-73
2022/06/20 10:48:14;;;;;;;1.90;1.80;;;19.30;1.00;;;;;;5053196;28;20489;-74
2022/06/20 10:51:01;;;;;;;4.47;1.80;;;19.40;1.00;;;;;;5052204;28;20426;-74
2022/06/20 10:53:51;;;;;;;2.13;1.73;;;19.40;1.00;;;;;;5061836;28;20406;-75
2022/06/20 10:56:50;;;;;;;2.30;1.70;;;19.50;1.00;;;;;;5070272;28;20427;-74
2022/06/20 10:59:57;;;;;;;1.80;1.70;;;19.50;1.00;;;;;;5064290;28;20475;-73
2022/06/20 11:03:00;;;;;;;1.60;1.50;;;19.60;1.00;;;;;;5053709;28;20479;-73
2022/06/20 11:06:07;;;;;;;1.60;1.50;;;19.60;1.00;;;;;;5059019;28;20420;-73
2022/06/20 11:09:14;;;;;;;1.50;1.40;;;19.50;1.00;;;;;;5044477;28;20503;-73
2022/06/20 11:11:46;;;;;;;1.67;1.57;;;19.70;1.00;;;;;;5010932;28;20487;-73
2022/06/20 11:14:36;;;;;;;1.33;1.23;;;19.70;1.00;;;;;;5013060;28;20851;-75
2022/06/20 11:17:26;;;;;;;1.43;1.33;;;19.90;1.00;;;;;;5012550;28;20411;-79
2022/06/20 11:19:54;;;;;;;1.30;1.30;;;20.10;1.00;;;;;;5010354;28;20445;-73
2022/06/20 11:22:41;;;;;;;3.23;1.13;;;20.30;1.00;;;;;;5010350;28;20420;-74
2022/06/20 11:25:23;;;;;;;1.70;1.30;;;20.50;1.00;;;;;;4993168;28;20397;-74
2022/06/20 11:28:24;;;;;;;1.83;1.30;;;20.50;1.00;;;;;;5012697;28;20412;-73
2022/06/20 11:31:11;;;;;;;3.70;1.33;;;20.60;1.00;;;;;;5009759;28;20429;-73
2022/06/20 11:34:04;;;;;;;3.60;1.10;;;20.40;1.00;;;;;;5012068;28;20523;-73
2022/06/20 11:36:47;;;;;;;2.93;1.33;;;20.20;1.00;;;;;;5011279;28;20797;-85
2022/06/20 11:39:50;;;;;;;4.43;1.77;;;20.00;1.00;;;;;;5020262;28;20461;-85
2022/06/20 11:42:38;;;;;;;4.87;1.47;;;19.90;1.00;;;;;;4995778;28;20415;-84
2022/06/20 11:49:07;;;;;;;2.37;1.67;;;19.40;1.00;;;;;;5074039;28;20988;-85
2022/06/20 11:52:14;;;;;;;3.23;1.53;;;19.20;1.00;;;;;;5055040;28;20397;-84
2022/06/20 11:55:16;;;;;;;1.40;1.30;;;19.10;1.00;;;;;;5077634;28;20948;-85
2022/06/20 11:57:57;;;;;;;1.30;1.20;;;18.90;1.00;;;;;;5059751;28;20394;-85
2022/06/20 12:00:32;;;;;;;1.30;1.20;;;18.90;1.00;;;;;;5073380;28;20467;-83
2022/06/20 12:03:31;;;;;;;1.40;1.30;;;18.90;1.00;;;;;;5079607;28;20506;-82
2022/06/20 12:06:23;;;;;;;0.90;0.90;;;18.90;1.00;;;;;;5077975;28;20440;-82
2022/06/20 12:09:26;;;;;;;1.30;1.20;;;18.90;1.00;;;;;;5066910;28;20451;-82
2022/06/20 12:12:26;;;;;;;1.00;0.90;;;19.00;1.00;;;;;;5069037;28;20504;-82
2022/06/20 12:15:20;;;;;;;3.03;0.90;;;19.10;1.00;;;;;;5072868;28;20443;-82
2022/06/20 12:18:26;;;;;;;1.20;0.80;;;19.30;1.00;;;;;;5073115;28;20420;-83
2022/06/20 12:24:15;;;;;;;1.10;1.00;;;20.10;1.00;;;;;;5073449;28;20430;-81
2022/06/20 12:26:44;;;;;;;1.07;0.90;;;20.50;1.00;;;;;;5065267;28;20435;-84
2022/06/20 12:29:45;;;;;;;0.90;0.90;;;20.80;1.00;;;;;;5074131;28;20460;-85
2022/06/20 12:32:45;;;;;;;1.20;1.10;;;20.90;1.00;;;;;;5073754;28;20421;-86
2022/06/20 12:36:04;;;;;;;2.40;0.80;;;20.90;1.00;;;;;;5066827;28;21029;-88
2022/06/20 12:39:05;;;;;;;1.90;0.90;;;20.90;1.00;;;;;;5014037;28;20452;-88
2022/06/20 12:41:51;;;;;;;2.27;1.10;;;20.70;1.00;;;;;;4984502;28;20433;-88
2022/06/20 12:51:03;;;;;;;1.10;1.00;;;20.50;1.00;;;;;;4979713;28;20421;-83
2022/06/20 12:54:02;;;;;;;1.00;0.90;;;20.60;1.00;;;;;;4983115;28;20902;-85
2022/06/20 12:57:13;;;;;;;1.87;1.00;;;20.70;1.00;;;;;;4980842;28;20750;-85
2022/06/20 12:59:51;;;;;;;1.97;1.00;;;20.80;1.00;;;;;;4941139;29;20487;-84
2022/06/20 13:02:44;;;;;;;2.50;0.83;;;20.70;1.00;;;;;;4935138;29;20430;-88
2022/06/20 13:12:44;;;;;;;1.00;0.80;;;20.80;1.00;;;;;;4947853;29;20420;-85
2022/06/20 13:15:51;;;;;;;1.27;0.70;;;20.80;1.00;;;;;;4964137;28;20503;-81
2022/06/20 13:18:44;;;;;;;0.80;0.80;;;20.60;1.00;;;;;;5005806;28;20413;-79
2022/06/20 13:21:46;;;;;;;1.90;0.87;;;20.50;1.00;;;;;;5003918;28;20927;-80
2022/06/20 13:24:19;;;;;;;5.80;0.80;;;20.60;1.00;;;;;;5010087;28;20435;-80
2022/06/20 13:26:54;;;;;;;0.97;0.97;;;20.60;1.00;;;;;;4999162;28;20421;-80
2022/06/20 13:29:31;;;;;;;2.70;1.00;;;20.70;1.00;;;;;;5003018;28;20427;-81
2022/06/20 13:32:23;;;;;;;1.07;0.83;;;20.70;1.00;;;;;;4985911;28;20862;-82
2022/06/20 13:35:12;;;;;;;1.10;0.93;;;20.70;1.00;;;;;;5020353;28;20405;-82
2022/06/20 13:37:58;;;;;;;1.17;0.80;;;20.70;1.00;;;;;;5033464;28;20427;-82
2022/06/20 13:40:45;;;;;;;2.13;1.00;;;20.60;1.00;;;;;;5024871;28;20459;-82
2022/06/20 13:43:48;;;;;;;0.67;0.67;;;20.50;1.00;;;;;;5033524;28;20762;-82
2022/06/20 13:46:23;;;;;;;2.70;0.70;;;20.60;1.00;;;;;;5033697;28;20766;-80
2022/06/20 13:49:12;;;;;;;1.30;0.80;;;20.50;1.00;;;;;;5033476;28;20422;-80
2022/06/20 13:51:47;;;;;;;2.30;0.60;;;20.60;1.00;;;;;;5033133;28;20813;-80
2022/06/20 13:54:20;;;;;;;0.93;0.70;;;20.80;1.00;;;;;;5016615;28;20552;-80
2022/06/20 13:57:14;;;;;;;1.37;0.97;;;21.00;1.00;;;;;;5033177;28;20750;-80
2022/06/20 13:59:58;;;;;;;1.30;0.80;;;21.40;1.00;;;;;;5022997;28;20468;-80
2022/06/20 14:02:39;;;;;;;0.87;0.70;;;21.80;1.00;;;;;;5013284;28;20801;-81
2022/06/20 14:05:27;;;;;;;1.47;0.83;;;22.00;1.00;;;;;;5013088;28;20463;-81
2022/06/20 14:08:04;;;;;;;0.60;0.60;;;22.10;1.00;;;;;;5013209;28;20544;-81
2022/06/20 14:10:36;;;;;;;0.80;0.70;;;22.10;1.00;;;;;;5013759;28;20524;-81
2022/06/20 14:13:05;;;;;;;1.40;0.63;;;22.20;1.00;;;;;;5032815;28;20405;-81
2022/06/20 14:15:31;;;;;;;0.70;0.70;;;22.20;1.00;;;;;;5033210;28;20423;-81
2022/06/20 14:18:05;;;;;;;0.63;0.63;;;22.10;1.00;;;;;;5032904;28;20795;-81
2022/06/20 14:20:35;;;;;;;0.93;0.70;;;22.20;1.00;;;;;;5032386;28;20685;-82
2022/06/20 14:23:04;;;;;;;1.10;0.63;;;22.20;1.00;;;;;;5032656;28;20395;-81
2022/06/20 14:25:38;;;;;;;2.80;0.90;;;22.20;1.00;;;;;;5032553;28;20466;-81
2022/06/20 14:28:24;;;;;;;1.60;0.80;;;22.10;1.00;;;;;;5042787;28;20428;-81
2022/06/20 14:30:58;;;;;;;2.67;0.80;;;21.90;1.00;;;;;;5074510;28;20943;-80
2022/06/20 14:33:36;;;;;;;0.97;0.90;;;21.70;1.00;;;;;;5062631;28;20423;-80
2022/06/20 14:36:07;;;;;;;1.00;0.80;;;21.50;1.00;;;;;;5074643;28;20414;-80
2022/06/20 14:38:47;;;;;;;0.70;0.70;;;21.30;1.00;;;;;;5074781;28;20501;-80
2022/06/20 14:44:41;;;;;;;1.43;1.03;;;20.90;1.00;;;;;;5074536;28;20825;-80
2022/06/20 14:47:19;;;;;;;2.83;1.10;;;20.60;1.00;;;;;;5074777;28;20400;-81
2022/06/20 14:49:52;;;;;;;1.73;0.90;;;20.40;1.00;;;;;;5074314;28;20448;-81
2022/06/20 14:52:34;;;;;;;2.30;1.47;;;20.30;1.00;;;;;;5074473;28;20487;-81
2022/06/20 14:55:15;;;;;;;1.80;1.00;;;20.30;1.00;;;;;;5074462;28;20408;-81
2022/06/20 14:57:48;;;;;;;1.87;1.03;;;20.40;1.00;;;;;;5074287;28;20749;-81
2022/06/20 15:00:19;;;;;;;4.30;1.20;;;20.60;1.00;;;;;;5070907;28;20465;-81
2022/06/20 15:03:17;;;;;;;6.73;1.30;;;20.80;1.00;;;;;;5074473;28;20506;-81
2022/06/20 15:05:58;;;;;;;2.10;1.03;;;21.00;1.00;;;;;;5031572;28;20398;-81
2022/06/20 15:08:36;;;;;;;4.27;1.40;;;21.40;1.00;;;;;;5012050;28;20435;-81
2022/06/20 15:11:16;;;;;;;1.00;0.90;;;21.80;1.00;;;;;;5031801;28;20416;-81
2022/06/20 15:13:48;;;;;;;1.80;1.10;;;22.70;1.00;;;;;;5031769;28;20522;-81